Time;durP1;ratioP1;P1;durP2;ratioP2;P2;SDS_P1;SDS_P2;PMS_P1;PMS_P2;Temp;Humidity;BMP_temperature;BMP_pressure;BME280_temperature;BME280_humidity;BME280_pressure;Samples;Min_cycle;Max_cycle;Signal;HPM_P1;HPM_P2
2022/06/11 00:01:35;;;;;;;11.43;6.25;;;;;;;17.22;87.67;102012.91;4935890;29;20039;-67
2022/06/11 00:04:04;;;;;;;11.48;5.80;;;;;;;17.16;88.44;102013.75;4950316;29;20087;-67
2022/06/11 00:06:34;;;;;;;8.68;5.38;;;;;;;17.11;88.29;102010.00;4952647;28;20430;-67
2022/06/11 00:08:59;;;;;;;8.57;5.70;;;;;;;17.05;88.60;102015.19;4953683;29;20079;-67
2022/06/11 00:11:25;;;;;;;13.77;6.10;;;;;;;16.98;88.89;102000.13;4953758;29;20039;-67
2022/06/11 00:13:51;;;;;;;10.38;6.40;;;;;;;16.99;88.78;102010.66;4953790;29;20050;-67
2022/06/11 00:16:20;;;;;;;9.75;6.53;;;;;;;16.92;88.92;102006.31;4953947;29;20554;-67
2022/06/11 00:18:46;;;;;;;10.65;6.93;;;;;;;16.89;89.04;102009.44;4953336;29;20027;-66
2022/06/11 00:21:13;;;;;;;13.68;6.03;;;;;;;16.85;89.28;102000.97;4953507;29;20043;-66
2022/06/11 00:23:40;;;;;;;12.95;6.55;;;;;;;16.81;89.72;102010.50;4953647;29;20487;-66
2022/06/11 00:26:07;;;;;;;14.55;6.72;;;;;;;16.77;89.86;102009.25;4948283;29;20034;-66
2022/06/11 00:28:33;;;;;;;8.25;6.13;;;;;;;16.71;90.12;102010.88;4935081;29;20090;-66
2022/06/11 00:30:59;;;;;;;11.77;6.60;;;;;;;16.64;89.99;102004.69;4935153;29;20039;-66
2022/06/11 00:33:24;;;;;;;17.27;7.70;;;;;;;16.52;90.07;101993.72;4934979;29;20043;-66
2022/06/11 00:35:51;;;;;;;9.93;5.88;;;;;;;16.58;90.14;102009.06;4934565;29;20110;-66
2022/06/11 00:38:17;;;;;;;13.30;6.18;;;;;;;16.56;90.33;102002.22;4934933;29;20455;-67
2022/06/11 00:40:46;;;;;;;12.65;7.13;;;;;;;16.55;90.09;102004.06;4934965;29;20118;-66
2022/06/11 00:43:14;;;;;;;9.95;5.70;;;;;;;16.51;90.15;102005.53;4934804;29;20039;-66
2022/06/11 00:46:00;;;;;;;8.18;4.88;;;;;;;16.51;89.81;102004.72;4934826;29;20066;-66
2022/06/11 00:48:32;;;;;;;11.60;6.03;;;;;;;16.48;90.12;102005.09;4952655;29;20078;-66
2022/06/11 00:51:06;;;;;;;9.07;5.30;;;;;;;16.47;90.08;102004.28;4953215;29;20035;-67
2022/06/11 00:53:42;;;;;;;12.68;6.03;;;;;;;16.40;89.83;101996.22;4952303;29;20133;-66
2022/06/11 00:56:16;;;;;;;15.38;5.85;;;;;;;16.40;89.96;102001.59;4952906;29;20041;-66
2022/06/11 00:58:45;;;;;;;5.70;4.75;;;;;;;16.36;90.29;102000.34;4953036;29;20023;-66
2022/06/11 01:01:13;;;;;;;10.25;5.43;;;;;;;16.34;90.29;102001.59;4952575;29;20649;-66
2022/06/11 01:03:42;;;;;;;12.15;5.93;;;;;;;16.31;90.43;101999.31;4952901;29;20031;-66
2022/06/11 01:06:10;;;;;;;9.85;4.55;;;;;;;16.29;90.42;101993.28;4952488;29;20479;-66
2022/06/11 01:08:56;;;;;;;7.55;4.38;;;;;;;16.27;90.22;101998.91;4952653;29;20484;-66
2022/06/11 01:11:39;;;;;;;7.57;4.70;;;;;;;16.27;89.84;102003.44;4952796;29;20042;-66
2022/06/11 01:14:07;;;;;;;8.80;4.95;;;;;;;16.22;89.97;101993.31;4952750;29;20038;-66
2022/06/11 01:16:45;;;;;;;11.93;6.18;;;;;;;16.19;89.86;101996.38;4952782;28;20034;-66
2022/06/11 01:19:38;;;;;;;8.85;4.47;;;;;;;16.19;90.09;101991.84;4952325;29;20544;-66
2022/06/11 01:22:09;;;;;;;10.63;5.50;;;;;;;16.15;90.79;101990.59;4952161;29;20487;-66
2022/06/11 01:24:34;;;;;;;8.23;4.90;;;;;;;16.13;90.43;101994.53;4952236;29;20042;-66
2022/06/11 01:27:24;;;;;;;12.83;5.67;;;;;;;16.10;90.82;101990.38;4952140;29;20023;-66
2022/06/11 01:30:07;;;;;;;8.63;4.97;;;;;;;16.11;90.36;101994.75;4952209;29;20318;-66
2022/06/11 01:32:42;;;;;;;7.20;4.40;;;;;;;16.09;90.57;101994.13;4952251;29;20032;-66
2022/06/11 01:35:36;;;;;;;6.88;4.13;;;;;;;16.10;90.58;101995.75;4952261;29;20117;-66
2022/06/11 01:38:06;;;;;;;9.02;4.85;;;;;;;16.08;90.65;101997.81;4952329;29;20158;-67
2022/06/11 01:40:47;;;;;;;9.07;4.75;;;;;;;16.07;91.51;101998.06;4951956;29;20038;-68
2022/06/11 01:43:22;;;;;;;9.00;5.45;;;;;;;16.01;91.08;102005.09;4952126;29;20082;-68
2022/06/11 01:45:49;;;;;;;10.95;5.05;;;;;;;15.97;91.12;101993.88;4951948;29;20057;-68
2022/06/11 01:48:21;;;;;;;8.52;5.18;;;;;;;15.95;91.39;101985.16;4952115;29;20029;-68
2022/06/11 01:50:52;;;;;;;;;;;;;;;15.98;89.79;101995.56;4952425;29;20893;-68
2022/06/11 01:53:41;;;;;;;9.02;5.07;;;;;;;15.93;91.03;101995.34;4935003;29;19917;-68
2022/06/11 01:56:37;;;;;;;9.93;5.20;;;;;;;15.91;91.48;101999.25;4952146;29;20027;-68
2022/06/11 01:59:09;;;;;;;11.00;5.22;;;;;;;15.90;91.48;101994.91;4952419;29;20082;-68
2022/06/11 02:01:43;;;;;;;;;;;;;;;15.92;89.99;101992.84;4952739;29;20058;-68
2022/06/11 02:04:33;;;;;;;10.00;5.43;;;;;;;15.90;91.14;101995.75;4952138;29;19918;-68
2022/06/11 02:07:19;;;;;;;12.15;5.43;;;;;;;15.88;91.34;101997.81;4952204;29;20146;-68
2022/06/11 02:10:03;;;;;;;8.65;4.93;;;;;;;15.87;91.87;101992.63;4941126;29;20097;-68
2022/06/11 02:12:58;;;;;;;8.93;4.75;;;;;;;15.86;91.49;101991.78;4952088;29;20034;-68
2022/06/11 02:15:49;;;;;;;8.55;5.30;;;;;;;15.84;91.48;101991.16;4951247;28;20151;-68
2022/06/11 02:18:19;;;;;;;10.30;5.63;;;;;;;15.83;92.03;101992.22;4951921;29;20035;-68
2022/06/11 02:21:03;;;;;;;6.90;4.82;;;;;;;15.82;91.83;101990.53;4951806;29;20039;-68
2022/06/11 02:23:52;;;;;;;11.73;5.97;;;;;;;15.82;91.90;101992.41;4951965;29;20038;-68
2022/06/11 02:26:23;;;;;;;9.73;4.57;;;;;;;15.77;92.19;101988.47;4951844;29;20030;-68
2022/06/11 02:28:51;;;;;;;11.02;5.10;;;;;;;15.78;92.40;101995.50;4951174;28;20055;-69
2022/06/11 02:31:23;;;;;;;9.73;4.35;;;;;;;15.77;92.61;101991.16;4951531;29;20565;-69
2022/06/11 02:33:49;;;;;;;;;;;;;;;15.82;90.88;101995.91;4952271;28;20027;-69
2022/06/11 02:36:19;;;;;;;8.27;4.95;;;;;;;15.79;92.22;101993.63;4951792;29;20027;-68
2022/06/11 02:38:45;;;;;;;10.45;4.80;;;;;;;15.76;92.13;101989.50;4951717;29;20493;-68
2022/06/11 02:41:16;;;;;;;5.55;4.15;;;;;;;15.74;92.19;101999.63;4951668;29;20027;-68
2022/06/11 02:43:42;;;;;;;8.43;4.32;;;;;;;15.75;92.48;102001.28;4951561;29;20027;-68
2022/06/11 02:48:52;;;;;;;6.35;4.10;;;;;;;15.71;92.07;102005.41;4951779;29;20046;-69
2022/06/11 02:51:22;;;;;;;13.98;5.20;;;;;;;15.70;92.20;102006.44;4951238;28;20039;-69
2022/06/11 02:53:48;;;;;;;9.70;4.75;;;;;;;15.68;92.18;102003.09;4951135;29;20541;-69
2022/06/11 02:56:13;;;;;;;6.63;4.93;;;;;;;15.68;92.17;102008.47;4951529;29;20066;-69
2022/06/11 02:58:40;;;;;;;6.90;4.80;;;;;;;15.66;92.06;102013.22;4951454;29;20080;-69
2022/06/11 03:01:06;;;;;;;8.77;4.50;;;;;;;15.65;92.14;102008.06;4951462;29;20089;-69
2022/06/11 03:03:31;;;;;;;8.43;4.40;;;;;;;15.58;91.98;102005.34;4951365;28;20031;-69
2022/06/11 03:05:58;;;;;;;9.65;4.63;;;;;;;15.62;92.11;102019.22;4950024;28;20035;-69
2022/06/11 03:08:23;;;;;;;6.43;4.25;;;;;;;15.62;92.14;102021.91;4951168;29;20046;-69
2022/06/11 03:10:54;;;;;;;9.68;4.57;;;;;;;15.60;91.96;102021.28;4951074;29;20042;-69
2022/06/11 03:13:30;;;;;;;8.73;4.33;;;;;;;15.54;91.91;102014.84;4951114;29;20045;-69
2022/06/11 03:15:57;;;;;;;7.55;4.57;;;;;;;15.56;91.98;102026.22;4950934;29;20050;-69
2022/06/11 03:18:23;;;;;;;8.10;4.50;;;;;;;15.51;92.05;102026.84;4951195;29;20212;-69
2022/06/11 03:20:50;;;;;;;9.98;4.00;;;;;;;15.50;92.05;102021.66;4951269;29;20131;-69
2022/06/11 03:23:17;;;;;;;8.02;3.78;;;;;;;15.50;92.18;102035.09;4950369;29;20043;-69
2022/06/11 03:25:42;;;;;;;8.27;3.45;;;;;;;15.50;92.22;102032.41;4950943;29;20113;-69
2022/06/11 03:28:20;;;;;;;7.18;4.22;;;;;;;15.46;92.29;102026.59;4950661;29;20027;-69
2022/06/11 03:30:46;;;;;;;5.55;4.15;;;;;;;15.48;92.54;102038.00;4950552;29;20050;-69
2022/06/11 03:33:12;;;;;;;10.88;4.05;;;;;;;15.48;92.59;102035.31;4949784;29;20035;-69
2022/06/11 03:35:38;;;;;;;7.60;4.78;;;;;;;15.51;92.48;102036.72;4951003;29;20031;-69
2022/06/11 03:38:07;;;;;;;5.50;3.75;;;;;;;15.55;92.44;102043.38;4951079;29;20090;-69
2022/06/11 03:40:33;;;;;;;8.60;4.00;;;;;;;15.55;92.24;102038.84;4951609;28;20034;-69
2022/06/11 03:42:58;;;;;;;8.60;3.88;;;;;;;15.60;92.58;102053.53;4954659;29;20043;-68
2022/06/11 03:45:24;;;;;;;5.50;3.92;;;;;;;15.64;92.34;102052.09;4954655;29;20041;-69
2022/06/11 03:47:49;;;;;;;7.80;4.03;;;;;;;15.66;92.14;102050.88;4954584;29;20039;-69
2022/06/11 03:50:22;;;;;;;7.53;4.35;;;;;;;15.70;92.11;102057.56;4954363;29;20107;-69
2022/06/11 03:52:48;;;;;;;6.47;4.05;;;;;;;15.75;91.73;102063.16;4954657;29;20133;-69
2022/06/11 03:55:13;;;;;;;5.85;4.20;;;;;;;15.77;91.79;102063.78;4954339;29;20446;-69
2022/06/11 03:57:39;;;;;;;6.93;4.60;;;;;;;15.83;91.56;102061.34;4954172;29;20031;-69
2022/06/11 04:00:08;;;;;;;7.47;4.25;;;;;;;15.85;91.75;102070.00;4954518;28;20023;-69
2022/06/11 04:02:34;;;;;;;8.75;4.50;;;;;;;15.87;91.16;102063.38;4954079;29;20027;-69
2022/06/11 04:04:59;;;;;;;8.98;4.53;;;;;;;15.91;91.04;102072.72;4953947;29;20035;-69
2022/06/11 04:07:25;;;;;;;12.32;4.78;;;;;;;15.88;90.11;102066.94;4954053;29;20074;-69
2022/06/11 04:09:51;;;;;;;9.88;4.28;;;;;;;15.91;89.53;102069.22;4954157;29;20038;-68
2022/06/11 04:12:16;;;;;;;7.82;3.97;;;;;;;15.91;89.97;102075.41;4953042;29;20031;-68
2022/06/11 04:14:44;;;;;;;8.50;4.10;;;;;;;15.90;90.38;102078.31;4954235;29;20084;-68
2022/06/11 04:17:26;;;;;;;6.93;4.30;;;;;;;15.92;90.06;102078.94;4954142;29;20038;-68
2022/06/11 04:19:52;;;;;;;7.80;4.40;;;;;;;15.92;89.92;102082.44;4954035;28;20031;-69
2022/06/11 04:22:18;;;;;;;7.60;4.43;;;;;;;15.95;90.38;102078.53;4954236;29;20035;-69
2022/06/11 04:24:44;;;;;;;8.32;5.22;;;;;;;15.94;89.99;102087.66;4953536;29;20039;-69
2022/06/11 04:27:12;;;;;;;10.30;4.93;;;;;;;15.95;89.42;102086.59;4953606;29;20038;-69
2022/06/11 04:29:44;;;;;;;7.32;3.65;;;;;;;15.94;89.19;102087.66;4953802;29;20034;-69
2022/06/11 04:32:12;;;;;;;5.78;4.20;;;;;;;15.95;88.86;102089.28;4953403;29;20102;-69
2022/06/11 04:34:38;;;;;;;7.10;3.40;;;;;;;15.95;88.79;102092.81;4953807;29;20046;-69
2022/06/11 04:37:04;;;;;;;7.30;3.35;;;;;;;15.96;88.86;102096.34;4953510;29;20043;-69
2022/06/11 04:39:32;;;;;;;5.53;2.80;;;;;;;15.98;88.33;102097.81;4953938;29;20030;-69
2022/06/11 04:41:58;;;;;;;6.40;3.80;;;;;;;15.98;88.13;102099.66;4953808;29;20383;-69
2022/06/11 04:44:24;;;;;;;7.07;3.63;;;;;;;16.03;87.77;102107.94;4953693;29;20031;-69
2022/06/11 04:46:50;;;;;;;8.50;4.13;;;;;;;16.11;87.25;102104.25;4953773;29;20027;-69
2022/06/11 04:49:16;;;;;;;10.02;4.10;;;;;;;16.15;86.71;102103.63;4953616;29;20035;-69
2022/06/11 04:51:42;;;;;;;6.57;2.88;;;;;;;16.15;85.00;102106.34;4952930;28;20046;-69
2022/06/11 04:54:07;;;;;;;8.88;3.17;;;;;;;16.11;84.90;102098.84;4952880;29;20506;-68
2022/06/11 04:56:33;;;;;;;4.65;3.30;;;;;;;16.10;84.22;102102.59;4953432;29;20037;-68
2022/06/11 04:58:59;;;;;;;10.93;3.38;;;;;;;16.11;84.14;102102.41;4952942;29;20475;-68
2022/06/11 05:01:25;;;;;;;6.57;2.80;;;;;;;16.14;84.23;102103.88;4952773;29;20054;-68
2022/06/11 05:03:51;;;;;;;7.05;2.60;;;;;;;16.12;82.15;102092.47;4952943;29;20431;-68
2022/06/11 05:06:32;;;;;;;9.77;3.83;;;;;;;16.13;82.09;102105.69;4951714;29;20039;-68
2022/06/11 05:08:58;;;;;;;4.37;2.67;;;;;;;16.14;81.58;102107.38;4953115;29;20479;-68
2022/06/11 05:11:23;;;;;;;7.15;3.20;;;;;;;16.16;81.87;102105.28;4953092;29;20041;-68
2022/06/11 05:13:49;;;;;;;8.48;3.22;;;;;;;16.17;81.94;102101.59;4953103;29;20035;-68
2022/06/11 05:16:17;;;;;;;8.05;3.22;;;;;;;16.16;80.77;102107.97;4953132;29;20118;-68
2022/06/11 05:18:42;;;;;;;5.25;2.42;;;;;;;16.20;81.53;102100.34;4952981;29;20027;-69
2022/06/11 05:21:08;;;;;;;8.00;2.72;;;;;;;16.21;81.38;102102.00;4952276;29;20050;-69
2022/06/11 05:23:34;;;;;;;12.75;5.35;;;;;;;16.21;79.22;102110.06;4952722;29;20035;-69
2022/06/11 05:26:00;;;;;;;11.32;3.47;;;;;;;16.24;79.29;102116.91;4952726;29;20389;-69
2022/06/11 05:28:28;;;;;;;8.30;2.95;;;;;;;16.29;78.48;102120.66;4952153;29;20573;-69
2022/06/11 05:30:55;;;;;;;8.50;3.00;;;;;;;16.30;79.65;102118.81;4967599;28;20035;-69
2022/06/11 05:33:21;;;;;;;7.05;3.13;;;;;;;16.36;79.86;102120.69;4952840;29;20074;-68
2022/06/11 05:35:47;;;;;;;9.20;3.70;;;;;;;16.39;78.87;102120.28;4952850;29;20467;-68
2022/06/11 05:38:16;;;;;;;14.85;3.75;;;;;;;16.39;78.26;102121.09;4952824;29;20032;-68
2022/06/11 05:40:44;;;;;;;7.25;3.10;;;;;;;16.38;76.77;102119.44;4952616;28;20031;-67
2022/06/11 05:43:11;;;;;;;12.48;4.00;;;;;;;16.36;76.57;102118.00;4952497;29;20030;-68
2022/06/11 05:45:49;;;;;;;5.20;2.45;;;;;;;16.40;77.53;102114.69;4952498;29;20593;-69
2022/06/11 05:48:18;;;;;;;7.15;2.30;;;;;;;16.40;75.99;102119.22;4952448;29;20031;-69
2022/06/11 05:50:47;;;;;;;12.30;3.70;;;;;;;16.37;76.04;102114.25;4952724;28;20031;-69
2022/06/11 05:53:16;;;;;;;11.68;3.00;;;;;;;16.37;75.38;102115.09;4951517;29;20034;-69
2022/06/11 05:55:44;;;;;;;7.20;2.28;;;;;;;16.46;74.06;102115.72;4951872;29;20033;-69
2022/06/11 05:58:14;;;;;;;7.60;3.10;;;;;;;16.57;73.59;102125.06;4952381;29;20063;-69
2022/06/11 06:00:40;;;;;;;10.23;2.97;;;;;;;16.75;72.80;102122.59;4951996;29;20058;-68
2022/06/11 06:03:05;;;;;;;2.72;1.58;;;;;;;17.21;72.49;102124.50;4951783;28;20081;-69
2022/06/11 06:05:32;;;;;;;11.90;3.17;;;;;;;17.62;69.08;102125.22;4951973;29;20044;-69
2022/06/11 06:07:58;;;;;;;8.52;2.17;;;;;;;17.63;70.01;102133.13;4951898;29;20031;-68
2022/06/11 06:10:24;;;;;;;11.32;3.20;;;;;;;17.41;68.88;102132.53;4952158;29;20035;-67
2022/06/11 06:12:50;;;;;;;5.82;2.72;;;;;;;17.17;69.01;102128.63;4951938;29;20097;-67
2022/06/11 06:15:23;;;;;;;9.45;2.33;;;;;;;16.96;70.30;102132.38;4951943;29;20098;-67
2022/06/11 06:17:50;;;;;;;11.57;3.78;;;;;;;16.92;70.88;102136.50;4951873;29;20603;-68
2022/06/11 06:20:17;;;;;;;15.05;3.10;;;;;;;16.95;72.12;102136.13;4951643;29;20147;-68
2022/06/11 06:22:44;;;;;;;7.22;2.55;;;;;;;17.02;71.98;102146.88;4951739;29;20490;-67
2022/06/11 06:25:13;;;;;;;10.68;4.13;;;;;;;17.05;71.71;102144.59;4951942;29;20557;-67
2022/06/11 06:27:38;;;;;;;8.98;2.83;;;;;;;17.12;71.19;102138.38;4951689;29;20232;-67
2022/06/11 06:30:05;;;;;;;10.98;3.58;;;;;;;17.17;71.79;102134.03;4951268;29;20075;-67
2022/06/11 06:32:30;;;;;;;12.73;2.38;;;;;;;17.21;71.01;102134.41;4950378;29;20490;-67
2022/06/11 06:34:56;;;;;;;12.02;2.83;;;;;;;17.17;70.78;102138.59;4951738;29;20054;-67
2022/06/11 06:37:22;;;;;;;10.88;2.63;;;;;;;17.11;71.47;102140.25;4950382;29;20161;-68
2022/06/11 06:39:47;;;;;;;10.40;2.95;;;;;;;17.11;71.60;102142.09;4951643;29;20031;-67
2022/06/11 06:42:12;;;;;;;16.30;4.70;;;;;;;17.19;72.24;102150.00;4951658;29;20036;-68
2022/06/11 06:44:38;;;;;;;17.20;4.25;;;;;;;17.25;71.90;102154.53;4951616;29;20307;-68
2022/06/11 06:47:03;;;;;;;8.75;3.65;;;;;;;17.28;71.12;102151.44;4951495;29;20114;-68
2022/06/11 06:49:29;;;;;;;6.57;3.22;;;;;;;17.31;72.27;102151.81;4950690;29;20067;-66
2022/06/11 06:51:54;;;;;;;9.30;2.72;;;;;;;17.24;71.93;102151.03;4951468;28;20031;-66
2022/06/11 06:54:20;;;;;;;13.60;3.78;;;;;;;17.19;72.62;102153.53;4951236;29;20426;-66
2022/06/11 06:56:45;;;;;;;14.73;2.90;;;;;;;17.16;71.60;102155.78;4951441;29;20031;-67
2022/06/11 06:59:11;;;;;;;15.30;3.20;;;;;;;17.20;72.15;102157.88;4951332;29;20122;-68
2022/06/11 07:01:38;;;;;;;12.35;3.03;;;;;;;17.28;72.77;102151.44;4951352;29;20079;-67
2022/06/11 07:04:03;;;;;;;10.63;3.05;;;;;;;17.38;72.50;102157.22;4945113;28;20031;-67
2022/06/11 07:06:30;;;;;;;11.65;3.33;;;;;;;17.56;72.44;102147.66;4946978;28;20566;-67
2022/06/11 07:08:56;;;;;;;10.93;2.95;;;;;;;17.74;73.36;102151.34;4946900;28;20034;-67
2022/06/11 07:11:21;;;;;;;9.75;3.22;;;;;;;17.79;71.88;102147.16;4947424;29;20035;-68
2022/06/11 07:13:46;;;;;;;16.02;4.70;;;;;;;17.80;71.14;102154.25;4947318;28;20027;-67
2022/06/11 07:16:19;;;;;;;15.60;4.40;;;;;;;17.77;71.29;102150.09;4951319;28;20687;-68
2022/06/11 07:18:53;;;;;;;12.95;3.58;;;;;;;17.78;70.87;102146.31;4953370;28;20142;-67
2022/06/11 07:21:28;;;;;;;18.73;4.38;;;;;;;17.90;71.69;102150.06;4953693;29;20046;-67
2022/06/11 07:23:57;;;;;;;12.15;3.42;;;;;;;18.03;71.43;102149.19;4953286;29;20031;-68
2022/06/11 07:26:33;;;;;;;8.98;2.92;;;;;;;18.10;69.76;102139.19;4953509;28;20050;-68
2022/06/11 07:29:03;;;;;;;17.77;3.63;;;;;;;18.19;69.20;102137.06;4953551;28;20023;-67
2022/06/11 07:31:30;;;;;;;11.65;3.10;;;;;;;18.31;70.06;102123.69;4953058;28;20031;-68
2022/06/11 07:33:57;;;;;;;11.35;3.42;;;;;;;18.42;69.12;102136.53;4953285;29;20050;-68
2022/06/11 07:36:23;;;;;;;13.32;3.28;;;;;;;18.48;69.38;102124.81;4953330;29;20030;-69
2022/06/11 07:38:48;;;;;;;13.75;3.33;;;;;;;18.50;71.21;102143.53;4956919;28;20665;-69
2022/06/11 07:41:14;;;;;;;19.63;4.25;;;;;;;18.56;69.88;102145.34;4957056;28;20490;-69
2022/06/11 07:43:39;;;;;;;14.18;3.67;;;;;;;18.71;71.42;102142.34;4957249;28;20506;-69
2022/06/11 07:46:05;;;;;;;12.38;4.25;;;;;;;18.87;69.34;102132.91;4957347;28;20035;-69
2022/06/11 07:48:31;;;;;;;13.23;3.70;;;;;;;18.92;66.70;102144.72;4957105;28;20039;-68
2022/06/11 07:50:56;;;;;;;13.05;3.83;;;;;;;19.00;68.07;102146.31;4957035;28;20459;-67
2022/06/11 07:53:22;;;;;;;16.35;4.85;;;;;;;19.05;66.68;102151.88;4956921;28;20177;-68
2022/06/11 07:55:50;;;;;;;13.10;3.92;;;;;;;19.04;65.95;102161.84;4957001;28;21105;-68
2022/06/11 07:58:18;;;;;;;12.52;3.45;;;;;;;19.01;66.37;102151.47;4938358;29;20051;-68
2022/06/11 08:00:47;;;;;;;13.60;3.80;;;;;;;19.10;67.51;102153.91;4957047;28;20090;-69
2022/06/11 08:03:12;;;;;;;12.57;4.13;;;;;;;19.28;64.71;102156.63;4956676;28;20031;-68
2022/06/11 08:05:38;;;;;;;11.32;3.50;;;;;;;19.49;63.95;102158.94;4956684;29;20587;-68
2022/06/11 08:08:07;;;;;;;13.23;3.08;;;;;;;19.60;63.12;102159.25;4956608;29;20039;-68
2022/06/11 08:10:33;;;;;;;10.88;3.67;;;;;;;19.90;62.16;102151.22;4956322;29;20045;-68
2022/06/11 08:12:59;;;;;;;8.55;2.40;;;;;;;20.33;64.03;102161.06;4956690;28;20038;-68
2022/06/11 08:15:25;;;;;;;11.95;3.08;;;;;;;20.57;59.96;102159.31;4956604;28;20039;-67
2022/06/11 08:17:50;;;;;;;11.52;2.50;;;;;;;22.01;55.79;102164.28;4956550;28;20093;-68
2022/06/11 08:20:21;;;;;;;12.00;2.97;;;;;;;22.99;54.22;102166.06;4956726;29;20106;-68
2022/06/11 08:22:47;;;;;;;14.30;3.40;;;;;;;23.42;50.20;102168.06;4956723;28;20110;-68
2022/06/11 08:25:12;;;;;;;11.93;3.63;;;;;;;23.11;50.35;102170.34;4956615;29;20102;-68
2022/06/11 08:27:38;;;;;;;6.93;1.85;;;;;;;22.76;48.89;102178.72;4954605;28;20031;-67
2022/06/11 08:30:04;;;;;;;9.48;2.90;;;;;;;22.37;52.41;102175.84;4936281;29;20098;-68
2022/06/11 08:32:29;;;;;;;10.85;2.42;;;;;;;22.10;52.79;102187.28;4953425;29;20035;-68
2022/06/11 08:34:55;;;;;;;11.55;2.85;;;;;;;21.45;53.76;102190.22;4953524;29;20031;-68
2022/06/11 08:37:21;;;;;;;8.88;3.80;;;;;;;20.99;56.31;102186.41;4953371;29;20035;-68
2022/06/11 08:39:47;;;;;;;14.73;4.03;;;;;;;21.44;56.69;102194.00;4953473;29;20053;-68
2022/06/11 08:42:37;;;;;;;10.93;2.33;;;;;;;22.02;57.26;102190.38;4953447;29;20479;-68
2022/06/11 08:45:14;;;;;;;11.82;3.90;;;;;;;21.42;55.71;102186.09;4953326;29;20023;-67
2022/06/11 08:47:48;;;;;;;15.57;4.45;;;;;;;20.79;58.50;102192.97;4953355;29;20039;-68
2022/06/11 08:50:17;;;;;;;10.57;2.90;;;;;;;20.50;58.75;102191.06;4952896;29;20086;-67
2022/06/11 08:52:45;;;;;;;11.40;3.08;;;;;;;20.41;60.89;102182.44;4953117;29;20067;-68
2022/06/11 08:55:10;;;;;;;13.93;4.00;;;;;;;20.58;60.46;102190.78;4952785;29;20554;-68
2022/06/11 08:57:47;;;;;;;15.73;3.67;;;;;;;20.83;62.60;102197.91;4952916;29;20039;-68
2022/06/11 09:00:16;;;;;;;14.05;3.70;;;;;;;20.90;60.50;102187.78;4952900;29;20023;-68
2022/06/11 09:03:12;;;;;;;11.70;3.33;;;;;;;20.73;60.71;102184.94;4952997;29;20097;-68
2022/06/11 09:06:07;;;;;;;15.88;5.70;;;;;;;20.61;61.34;102190.31;4934428;29;20054;-68
2022/06/11 09:08:44;;;;;;;10.60;3.28;;;;;;;20.54;61.79;102185.00;4934532;29;20021;-68
2022/06/11 09:11:22;;;;;;;15.27;4.03;;;;;;;20.48;63.84;102183.16;4934355;29;20067;-68
2022/06/11 09:14:10;;;;;;;15.90;4.38;;;;;;;20.49;62.74;102178.59;4934453;29;20024;-68
2022/06/11 09:17:10;;;;;;;10.05;3.75;;;;;;;20.52;64.01;102168.09;4927178;29;20551;-69
2022/06/11 09:19:47;;;;;;;8.68;2.97;;;;;;;20.63;62.03;102177.38;4934292;29;20063;-68
2022/06/11 09:22:46;;;;;;;16.77;5.40;;;;;;;20.99;65.96;102186.41;4934274;29;20035;-69
2022/06/11 09:25:42;;;;;;;17.77;4.32;;;;;;;21.20;63.40;102185.84;4934412;29;20031;-69
2022/06/11 09:28:20;;;;;;;11.52;3.70;;;;;;;21.16;62.30;102173.78;4934155;29;20507;-69
2022/06/11 09:31:09;;;;;;;10.07;3.40;;;;;;;21.36;62.76;102175.34;4934141;29;20476;-67
2022/06/11 09:33:47;;;;;;;17.85;3.67;;;;;;;21.49;60.94;102187.88;4916744;29;20067;-67
2022/06/11 09:36:27;;;;;;;15.13;5.35;;;;;;;21.49;61.50;102179.75;4933838;29;20031;-67
2022/06/11 09:39:02;;;;;;;15.52;3.05;;;;;;;21.44;60.77;102169.59;4933511;29;20027;-68
2022/06/11 09:41:50;;;;;;;9.70;3.30;;;;;;;21.58;62.20;102179.13;4933932;29;20042;-68
2022/06/11 09:44:32;;;;;;;10.48;4.13;;;;;;;21.70;62.24;102179.13;4933886;29;20072;-68
2022/06/11 09:47:12;;;;;;;10.85;1.92;;;;;;;21.77;55.52;102182.53;4952276;29;20031;-67
2022/06/11 09:49:49;;;;;;;14.05;2.85;;;;;;;21.69;55.57;102182.88;4952032;29;20031;-67
2022/06/11 09:52:32;;;;;;;14.13;3.50;;;;;;;21.64;57.73;102183.59;4951858;29;20438;-68
2022/06/11 09:55:26;;;;;;;8.25;2.70;;;;;;;21.73;57.85;102185.97;4951860;29;20047;-69
2022/06/11 09:58:05;;;;;;;10.52;4.22;;;;;;;21.86;54.91;102189.22;4951861;29;20039;-68
2022/06/11 10:00:38;;;;;;;12.35;2.97;;;;;;;21.89;53.61;102182.50;4952028;29;20054;-68
2022/06/11 10:05:57;;;;;;;9.50;3.42;;;;;;;21.67;55.44;102185.84;4952062;29;20031;-68
2022/06/11 10:08:41;;;;;;;15.33;3.83;;;;;;;21.73;57.83;102181.34;4951696;29;20034;-68
2022/06/11 10:11:16;;;;;;;13.15;2.88;;;;;;;21.95;55.94;102183.41;4951376;29;20118;-68
2022/06/11 10:14:31;;;;;;;12.13;3.28;;;;;;;21.84;56.55;102188.63;4951533;29;20027;-68
2022/06/11 10:17:08;;;;;;;12.95;2.97;;;;;;;21.87;56.49;102190.06;4935643;29;20164;-68
2022/06/11 10:20:03;;;;;;;17.60;4.32;;;;;;;22.00;57.66;102187.06;4916016;29;20921;-68
2022/06/11 10:22:42;;;;;;;16.48;4.18;;;;;;;21.87;56.31;102190.88;4915064;29;20110;-68
2022/06/11 10:25:22;;;;;;;14.82;4.07;;;;;;;21.89;57.57;102196.91;4933053;29;20031;-68
2022/06/11 10:28:11;;;;;;;11.27;3.05;;;;;;;21.86;56.56;102191.13;4932480;29;20082;-68
2022/06/11 10:30:45;;;;;;;15.02;4.80;;;;;;;21.86;58.06;102193.84;4925778;29;20452;-68
2022/06/11 10:33:21;;;;;;;14.85;4.13;;;;;;;22.01;57.63;102190.63;4932262;29;20032;-68
2022/06/11 10:36:01;;;;;;;10.20;3.83;;;;;;;22.15;57.23;102194.72;4932979;29;20032;-68
2022/06/11 10:38:38;;;;;;;8.30;2.92;;;;;;;22.25;53.93;102178.63;4932888;29;20134;-68
2022/06/11 10:41:09;;;;;;;10.73;3.28;;;;;;;22.43;57.54;102187.66;4932948;29;20028;-68
2022/06/11 10:43:37;;;;;;;11.18;3.13;;;;;;;22.47;55.88;102192.34;4932819;29;20031;-68
2022/06/11 10:46:02;;;;;;;13.95;4.38;;;;;;;22.27;52.92;102190.09;4932878;29;20475;-68
2022/06/11 10:48:34;;;;;;;12.93;3.58;;;;;;;22.31;55.88;102191.25;4932595;29;20117;-68
2022/06/11 10:51:06;;;;;;;13.88;3.35;;;;;;;22.38;55.29;102191.09;4931778;29;20055;-68
2022/06/11 10:53:41;;;;;;;13.13;4.05;;;;;;;22.47;55.66;102191.53;4935798;29;20051;-68
2022/06/11 10:56:19;;;;;;;15.38;4.72;;;;;;;22.38;53.28;102182.94;4951342;28;20086;-68
2022/06/11 10:58:54;;;;;;;7.25;2.47;;;;;;;22.35;47.92;102180.72;4951297;29;20047;-68
2022/06/11 11:01:25;;;;;;;7.57;1.63;;;;;;;22.34;49.60;102178.25;4950465;29;20481;-68
2022/06/11 11:04:14;;;;;;;12.48;2.33;;;;;;;22.32;50.77;102175.75;4951097;29;20031;-69
2022/06/11 11:06:41;;;;;;;5.75;1.73;;;;;;;22.32;49.30;102173.03;4947971;29;20050;-68
2022/06/11 11:09:10;;;;;;;9.88;2.40;;;;;;;22.36;49.92;102178.81;4951280;28;20118;-68
2022/06/11 11:11:44;;;;;;;7.25;1.77;;;;;;;22.35;50.20;102182.59;4951209;29;20035;-68
2022/06/11 11:14:27;;;;;;;7.15;2.35;;;;;;;22.19;50.62;102171.47;4950298;29;20028;-68
2022/06/11 11:16:59;;;;;;;7.28;2.17;;;;;;;22.20;51.74;102186.69;4950885;29;20075;-69
2022/06/11 11:19:28;;;;;;;8.52;2.33;;;;;;;22.19;50.12;102187.75;4951223;29;20030;-67
2022/06/11 11:21:57;;;;;;;12.10;3.20;;;;;;;22.24;53.92;102189.72;4950961;29;20110;-67
2022/06/11 11:24:29;;;;;;;11.80;2.83;;;;;;;22.33;50.48;102165.72;4951074;29;20039;-66
2022/06/11 11:27:13;;;;;;;9.75;2.65;;;;;;;22.49;52.97;102175.81;4946162;29;20073;-66
2022/06/11 11:29:51;;;;;;;7.28;2.22;;;;;;;22.52;52.42;102178.03;4946324;28;20138;-67
2022/06/11 11:32:38;;;;;;;15.45;2.70;;;;;;;22.44;51.37;102171.09;4946611;28;20090;-67
2022/06/11 11:35:21;;;;;;;11.15;3.60;;;;;;;22.41;53.01;102173.50;4946264;29;20086;-65
2022/06/11 11:38:01;;;;;;;10.70;3.95;;;;;;;22.52;52.91;102167.97;4949213;29;20078;-65
2022/06/11 11:40:33;;;;;;;12.30;2.90;;;;;;;22.52;52.97;102170.69;4950971;29;20031;-66
2022/06/11 11:43:09;;;;;;;;;;;;;;;22.76;53.46;102167.84;4951467;29;20114;-66
2022/06/11 11:45:46;;;;;;;13.50;3.88;;;;;;;22.78;53.06;102162.16;4951099;28;19989;-66
2022/06/11 11:48:34;;;;;;;13.32;3.58;;;;;;;22.88;52.63;102167.78;4950902;29;20115;-66